sensor_id;sensor_type;location;lat;lon;timestamp;P1;durP1;ratioP1;P2;durP2;ratioP2
67456;SDS011;54319;52.038;4.640;2022-09-09T00:01:43;6.15;;;2.95;;
67456;SDS011;54319;52.038;4.640;2022-09-09T00:04:18;5.78;;;2.78;;
67456;SDS011;54319;52.038;4.640;2022-09-09T00:06:55;6.70;;;3.20;;
67456;SDS011;54319;52.038;4.640;2022-09-09T00:09:31;6.35;;;3.40;;
67456;SDS011;54319;52.038;4.640;2022-09-09T00:14:37;6.90;;;3.75;;
67456;SDS011;54319;52.038;4.640;2022-09-09T00:17:12;6.47;;;3.95;;
67456;SDS011;54319;52.038;4.640;2022-09-09T00:22:18;8.15;;;4.13;;
67456;SDS011;54319;52.038;4.640;2022-09-09T00:24:48;7.28;;;4.05;;
67456;SDS011;54319;52.038;4.640;2022-09-09T00:27:22;8.02;;;4.60;;
67456;SDS011;54319;52.038;4.640;2022-09-09T00:32:27;7.28;;;4.43;;
67456;SDS011;54319;52.038;4.640;2022-09-09T00:34:56;9.02;;;4.95;;
67456;SDS011;54319;52.038;4.640;2022-09-09T00:37:28;8.65;;;5.18;;
67456;SDS011;54319;52.038;4.640;2022-09-09T00:39:58;7.10;;;4.78;;
67456;SDS011;54319;52.038;4.640;2022-09-09T00:42:32;6.53;;;4.40;;
67456;SDS011;54319;52.038;4.640;2022-09-09T00:45:10;8.52;;;5.07;;
67456;SDS011;54319;52.038;4.640;2022-09-09T00:47:51;9.32;;;5.60;;
67456;SDS011;54319;52.038;4.640;2022-09-09T00:50:31;7.28;;;5.07;;
67456;SDS011;54319;52.038;4.640;2022-09-09T00:53:10;9.27;;;5.78;;
67456;SDS011;54319;52.038;4.640;2022-09-09T00:55:48;11.43;;;6.00;;
67456;SDS011;54319;52.038;4.640;2022-09-09T00:58:20;10.00;;;5.55;;
67456;SDS011;54319;52.038;4.640;2022-09-09T01:03:22;7.22;;;5.35;;
67456;SDS011;54319;52.038;4.640;2022-09-09T01:06:00;8.93;;;5.80;;
67456;SDS011;54319;52.038;4.640;2022-09-09T01:11:40;8.77;;;5.60;;
67456;SDS011;54319;52.038;4.640;2022-09-09T01:14:18;8.43;;;5.78;;
67456;SDS011;54319;52.038;4.640;2022-09-09T01:16:58;10.75;;;6.10;;
67456;SDS011;54319;52.038;4.640;2022-09-09T01:19:33;10.73;;;5.82;;
67456;SDS011;54319;52.038;4.640;2022-09-09T01:22:09;10.18;;;6.50;;
67456;SDS011;54319;52.038;4.640;2022-09-09T01:24:45;7.95;;;5.85;;
67456;SDS011;54319;52.038;4.640;2022-09-09T01:27:34;9.55;;;6.07;;
67456;SDS011;54319;52.038;4.640;2022-09-09T01:30:04;9.90;;;5.95;;
67456;SDS011;54319;52.038;4.640;2022-09-09T01:32:39;9.68;;;5.53;;
67456;SDS011;54319;52.038;4.640;2022-09-09T01:35:11;8.48;;;5.35;;
67456;SDS011;54319;52.038;4.640;2022-09-09T01:37:48;9.10;;;5.55;;
67456;SDS011;54319;52.038;4.640;2022-09-09T01:40:16;7.22;;;5.15;;
67456;SDS011;54319;52.038;4.640;2022-09-09T01:42:45;9.07;;;5.67;;
67456;SDS011;54319;52.038;4.640;2022-09-09T01:45:13;10.43;;;5.15;;
67456;SDS011;54319;52.038;4.640;2022-09-09T01:47:39;6.70;;;4.90;;
67456;SDS011;54319;52.038;4.640;2022-09-09T01:50:07;9.68;;;5.13;;
67456;SDS011;54319;52.038;4.640;2022-09-09T01:52:41;10.23;;;5.25;;
67456;SDS011;54319;52.038;4.640;2022-09-09T01:55:12;6.78;;;4.47;;
67456;SDS011;54319;52.038;4.640;2022-09-09T01:57:41;8.80;;;4.70;;
67456;SDS011;54319;52.038;4.640;2022-09-09T02:00:16;11.93;;;5.35;;
67456;SDS011;54319;52.038;4.640;2022-09-09T02:02:48;8.15;;;4.53;;
67456;SDS011;54319;52.038;4.640;2022-09-09T02:05:29;8.82;;;4.38;;
67456;SDS011;54319;52.038;4.640;2022-09-09T02:08:00;6.68;;;4.45;;
67456;SDS011;54319;52.038;4.640;2022-09-09T02:10:32;8.48;;;4.18;;
67456;SDS011;54319;52.038;4.640;2022-09-09T02:13:04;6.47;;;4.10;;
67456;SDS011;54319;52.038;4.640;2022-09-09T02:15:39;9.18;;;4.40;;
67456;SDS011;54319;52.038;4.640;2022-09-09T02:18:11;11.07;;;4.38;;
67456;SDS011;54319;52.038;4.640;2022-09-09T02:20:41;10.32;;;4.28;;
67456;SDS011;54319;52.038;4.640;2022-09-09T02:23:10;8.20;;;4.25;;
67456;SDS011;54319;52.038;4.640;2022-09-09T02:25:39;7.70;;;4.15;;
67456;SDS011;54319;52.038;4.640;2022-09-09T02:28:08;7.28;;;4.10;;
67456;SDS011;54319;52.038;4.640;2022-09-09T02:30:42;7.35;;;4.20;;
67456;SDS011;54319;52.038;4.640;2022-09-09T02:33:12;8.38;;;4.25;;
67456;SDS011;54319;52.038;4.640;2022-09-09T02:35:43;7.30;;;4.30;;
67456;SDS011;54319;52.038;4.640;2022-09-09T02:38:14;8.90;;;4.93;;
67456;SDS011;54319;52.038;4.640;2022-09-09T02:40:43;11.30;;;4.78;;
67456;SDS011;54319;52.038;4.640;2022-09-09T02:43:10;9.05;;;4.95;;
67456;SDS011;54319;52.038;4.640;2022-09-09T02:45:39;8.60;;;4.22;;
67456;SDS011;54319;52.038;4.640;2022-09-09T02:48:14;9.15;;;4.05;;
67456;SDS011;54319;52.038;4.640;2022-09-09T02:50:49;7.18;;;4.32;;
67456;SDS011;54319;52.038;4.640;2022-09-09T02:53:23;8.25;;;4.22;;
67456;SDS011;54319;52.038;4.640;2022-09-09T02:55:57;8.13;;;4.90;;
67456;SDS011;54319;52.038;4.640;2022-09-09T02:58:29;6.57;;;4.18;;
67456;SDS011;54319;52.038;4.640;2022-09-09T03:00:58;9.77;;;4.32;;
67456;SDS011;54319;52.038;4.640;2022-09-09T03:03:26;7.50;;;4.90;;
67456;SDS011;54319;52.038;4.640;2022-09-09T03:05:53;8.65;;;4.93;;
67456;SDS011;54319;52.038;4.640;2022-09-09T03:08:20;8.53;;;4.57;;
67456;SDS011;54319;52.038;4.640;2022-09-09T03:10:47;9.50;;;5.03;;
67456;SDS011;54319;52.038;4.640;2022-09-09T03:13:14;10.65;;;5.43;;
67456;SDS011;54319;52.038;4.640;2022-09-09T03:15:44;9.77;;;5.30;;
67456;SDS011;54319;52.038;4.640;2022-09-09T03:18:12;8.40;;;4.87;;
67456;SDS011;54319;52.038;4.640;2022-09-09T03:20:39;7.15;;;4.68;;
67456;SDS011;54319;52.038;4.640;2022-09-09T03:23:07;7.43;;;4.70;;
67456;SDS011;54319;52.038;4.640;2022-09-09T03:28:01;12.00;;;4.90;;
67456;SDS011;54319;52.038;4.640;2022-09-09T03:30:28;8.15;;;4.82;;
67456;SDS011;54319;52.038;4.640;2022-09-09T03:32:55;10.73;;;5.53;;
67456;SDS011;54319;52.038;4.640;2022-09-09T03:35:24;11.15;;;4.82;;
67456;SDS011;54319;52.038;4.640;2022-09-09T03:37:51;8.70;;;5.20;;
67456;SDS011;54319;52.038;4.640;2022-09-09T03:40:20;8.23;;;4.88;;
67456;SDS011;54319;52.038;4.640;2022-09-09T03:42:46;11.23;;;5.33;;
67456;SDS011;54319;52.038;4.640;2022-09-09T03:50:08;10.50;;;5.38;;
67456;SDS011;54319;52.038;4.640;2022-09-09T03:52:38;12.68;;;5.22;;
67456;SDS011;54319;52.038;4.640;2022-09-09T03:55:07;10.35;;;5.60;;
67456;SDS011;54319;52.038;4.640;2022-09-09T03:57:35;7.47;;;4.90;;
67456;SDS011;54319;52.038;4.640;2022-09-09T04:02:30;8.95;;;5.03;;
67456;SDS011;54319;52.038;4.640;2022-09-09T04:04:57;9.82;;;4.75;;
67456;SDS011;54319;52.038;4.640;2022-09-09T04:07:24;9.40;;;4.70;;
67456;SDS011;54319;52.038;4.640;2022-09-09T04:12:21;7.18;;;4.70;;
67456;SDS011;54319;52.038;4.640;2022-09-09T04:14:48;8.27;;;4.38;;
67456;SDS011;54319;52.038;4.640;2022-09-09T04:17:15;10.00;;;4.53;;
67456;SDS011;54319;52.038;4.640;2022-09-09T04:19:44;9.80;;;4.85;;
67456;SDS011;54319;52.038;4.640;2022-09-09T04:22:11;5.45;;;4.00;;
67456;SDS011;54319;52.038;4.640;2022-09-09T04:24:38;6.70;;;4.03;;
67456;SDS011;54319;52.038;4.640;2022-09-09T04:27:06;6.03;;;3.97;;
67456;SDS011;54319;52.038;4.640;2022-09-09T04:29:35;8.57;;;4.30;;
67456;SDS011;54319;52.038;4.640;2022-09-09T04:32:03;6.82;;;3.88;;
67456;SDS011;54319;52.038;4.640;2022-09-09T04:34:30;6.63;;;3.50;;
67456;SDS011;54319;52.038;4.640;2022-09-09T04:36:57;8.27;;;3.42;;
67456;SDS011;54319;52.038;4.640;2022-09-09T04:41:52;8.70;;;3.13;;
67456;SDS011;54319;52.038;4.640;2022-09-09T04:44:22;6.97;;;3.45;;
67456;SDS011;54319;52.038;4.640;2022-09-09T04:46:49;7.38;;;3.15;;
67456;SDS011;54319;52.038;4.640;2022-09-09T04:49:16;5.23;;;2.83;;
67456;SDS011;54319;52.038;4.640;2022-09-09T04:54:10;6.18;;;3.15;;
67456;SDS011;54319;52.038;4.640;2022-09-09T04:59:05;6.50;;;2.83;;
67456;SDS011;54319;52.038;4.640;2022-09-09T05:01:33;5.68;;;2.67;;
67456;SDS011;54319;52.038;4.640;2022-09-09T05:04:01;4.47;;;2.78;;
67456;SDS011;54319;52.038;4.640;2022-09-09T05:06:28;5.18;;;2.78;;
67456;SDS011;54319;52.038;4.640;2022-09-09T05:08:56;8.82;;;3.33;;
67456;SDS011;54319;52.038;4.640;2022-09-09T05:13:51;8.52;;;2.95;;
67456;SDS011;54319;52.038;4.640;2022-09-09T05:16:20;5.10;;;2.90;;
67456;SDS011;54319;52.038;4.640;2022-09-09T05:18:49;12.52;;;3.25;;
67456;SDS011;54319;52.038;4.640;2022-09-09T05:21:17;8.50;;;3.42;;
67456;SDS011;54319;52.038;4.640;2022-09-09T05:23:45;9.18;;;3.40;;
67456;SDS011;54319;52.038;4.640;2022-09-09T05:28:40;5.22;;;2.50;;
67456;SDS011;54319;52.038;4.640;2022-09-09T05:31:08;8.68;;;3.05;;
67456;SDS011;54319;52.038;4.640;2022-09-09T05:33:37;8.27;;;2.70;;
67456;SDS011;54319;52.038;4.640;2022-09-09T05:36:10;10.32;;;3.13;;
67456;SDS011;54319;52.038;4.640;2022-09-09T05:38:39;3.90;;;2.72;;
67456;SDS011;54319;52.038;4.640;2022-09-09T05:41:07;6.88;;;2.65;;
67456;SDS011;54319;52.038;4.640;2022-09-09T05:43:34;9.55;;;3.28;;
67456;SDS011;54319;52.038;4.640;2022-09-09T05:46:03;8.70;;;2.78;;
67456;SDS011;54319;52.038;4.640;2022-09-09T05:48:35;6.10;;;3.20;;
67456;SDS011;54319;52.038;4.640;2022-09-09T05:51:04;15.18;;;3.20;;
67456;SDS011;54319;52.038;4.640;2022-09-09T05:53:33;9.73;;;2.85;;
67456;SDS011;54319;52.038;4.640;2022-09-09T05:56:01;8.00;;;2.70;;
67456;SDS011;54319;52.038;4.640;2022-09-09T05:58:29;8.68;;;2.72;;
67456;SDS011;54319;52.038;4.640;2022-09-09T06:01:00;7.47;;;2.65;;
67456;SDS011;54319;52.038;4.640;2022-09-09T06:03:28;10.63;;;2.28;;
67456;SDS011;54319;52.038;4.640;2022-09-09T06:05:57;9.00;;;2.42;;
67456;SDS011;54319;52.038;4.640;2022-09-09T06:08:24;8.38;;;2.70;;
67456;SDS011;54319;52.038;4.640;2022-09-09T06:10:53;8.38;;;2.25;;
67456;SDS011;54319;52.038;4.640;2022-09-09T06:13:21;7.00;;;2.42;;
67456;SDS011;54319;52.038;4.640;2022-09-09T06:15:49;8.52;;;2.60;;
67456;SDS011;54319;52.038;4.640;2022-09-09T06:18:17;7.30;;;2.53;;
67456;SDS011;54319;52.038;4.640;2022-09-09T06:20:52;7.63;;;2.65;;
67456;SDS011;54319;52.038;4.640;2022-09-09T06:23:20;7.53;;;2.42;;
67456;SDS011;54319;52.038;4.640;2022-09-09T06:25:47;8.60;;;2.55;;
67456;SDS011;54319;52.038;4.640;2022-09-09T06:28:16;6.63;;;2.47;;
67456;SDS011;54319;52.038;4.640;2022-09-09T06:30:44;7.70;;;2.55;;
67456;SDS011;54319;52.038;4.640;2022-09-09T06:33:11;8.00;;;2.65;;
67456;SDS011;54319;52.038;4.640;2022-09-09T06:35:38;12.23;;;2.28;;
67456;SDS011;54319;52.038;4.640;2022-09-09T06:38:05;6.10;;;2.27;;
67456;SDS011;54319;52.038;4.640;2022-09-09T06:40:33;7.90;;;2.25;;
67456;SDS011;54319;52.038;4.640;2022-09-09T06:43:00;5.10;;;2.15;;
67456;SDS011;54319;52.038;4.640;2022-09-09T06:45:28;6.93;;;2.50;;
67456;SDS011;54319;52.038;4.640;2022-09-09T06:47:58;8.48;;;2.47;;
67456;SDS011;54319;52.038;4.640;2022-09-09T06:50:26;4.93;;;2.13;;
67456;SDS011;54319;52.038;4.640;2022-09-09T06:52:52;13.43;;;2.93;;
67456;SDS011;54319;52.038;4.640;2022-09-09T06:55:20;7.85;;;2.55;;
67456;SDS011;54319;52.038;4.640;2022-09-09T06:57:46;7.03;;;2.50;;
67456;SDS011;54319;52.038;4.640;2022-09-09T07:00:17;5.70;;;2.20;;
67456;SDS011;54319;52.038;4.640;2022-09-09T07:02:47;7.25;;;2.40;;
67456;SDS011;54319;52.038;4.640;2022-09-09T07:05:17;4.80;;;2.53;;
67456;SDS011;54319;52.038;4.640;2022-09-09T07:07:44;6.57;;;2.80;;
67456;SDS011;54319;52.038;4.640;2022-09-09T07:10:11;6.72;;;2.97;;
67456;SDS011;54319;52.038;4.640;2022-09-09T07:12:38;7.45;;;2.97;;
67456;SDS011;54319;52.038;4.640;2022-09-09T07:15:05;6.35;;;2.92;;
67456;SDS011;54319;52.038;4.640;2022-09-09T07:17:33;8.60;;;3.28;;
67456;SDS011;54319;52.038;4.640;2022-09-09T07:20:01;8.82;;;3.08;;
67456;SDS011;54319;52.038;4.640;2022-09-09T07:22:29;8.30;;;3.08;;
67456;SDS011;54319;52.038;4.640;2022-09-09T07:24:57;7.78;;;3.50;;
67456;SDS011;54319;52.038;4.640;2022-09-09T07:27:24;7.60;;;3.23;;
67456;SDS011;54319;52.038;4.640;2022-09-09T07:29:51;9.02;;;3.60;;
67456;SDS011;54319;52.038;4.640;2022-09-09T07:32:19;8.15;;;3.28;;
67456;SDS011;54319;52.038;4.640;2022-09-09T07:34:45;7.53;;;3.30;;
67456;SDS011;54319;52.038;4.640;2022-09-09T07:37:14;11.05;;;3.00;;
67456;SDS011;54319;52.038;4.640;2022-09-09T07:39:41;8.10;;;3.15;;
67456;SDS011;54319;52.038;4.640;2022-09-09T07:42:08;9.82;;;3.72;;
67456;SDS011;54319;52.038;4.640;2022-09-09T07:44:36;7.15;;;3.58;;
67456;SDS011;54319;52.038;4.640;2022-09-09T07:47:04;7.40;;;3.47;;
67456;SDS011;54319;52.038;4.640;2022-09-09T07:49:31;8.55;;;3.55;;
67456;SDS011;54319;52.038;4.640;2022-09-09T07:51:59;6.72;;;3.45;;
67456;SDS011;54319;52.038;4.640;2022-09-09T07:54:28;8.20;;;3.60;;
67456;SDS011;54319;52.038;4.640;2022-09-09T07:56:55;6.63;;;3.42;;
67456;SDS011;54319;52.038;4.640;2022-09-09T07:59:22;10.27;;;3.60;;
67456;SDS011;54319;52.038;4.640;2022-09-09T08:04:18;9.27;;;3.72;;
67456;SDS011;54319;52.038;4.640;2022-09-09T08:06:47;9.57;;;3.58;;
67456;SDS011;54319;52.038;4.640;2022-09-09T08:09:17;8.90;;;3.80;;
67456;SDS011;54319;52.038;4.640;2022-09-09T08:11:46;8.25;;;3.60;;
67456;SDS011;54319;52.038;4.640;2022-09-09T08:14:13;7.72;;;3.15;;
67456;SDS011;54319;52.038;4.640;2022-09-09T08:16:41;9.55;;;3.50;;
67456;SDS011;54319;52.038;4.640;2022-09-09T08:19:10;5.65;;;3.28;;
67456;SDS011;54319;52.038;4.640;2022-09-09T08:21:38;6.72;;;3.78;;
67456;SDS011;54319;52.038;4.640;2022-09-09T08:24:06;9.25;;;3.50;;
67456;SDS011;54319;52.038;4.640;2022-09-09T08:26:36;8.85;;;3.63;;
67456;SDS011;54319;52.038;4.640;2022-09-09T08:29:06;11.40;;;3.50;;
67456;SDS011;54319;52.038;4.640;2022-09-09T08:31:35;6.32;;;3.33;;
67456;SDS011;54319;52.038;4.640;2022-09-09T08:34:04;7.35;;;3.20;;
67456;SDS011;54319;52.038;4.640;2022-09-09T08:36:33;8.68;;;3.30;;
67456;SDS011;54319;52.038;4.640;2022-09-09T08:39:02;7.70;;;3.38;;
67456;SDS011;54319;52.038;4.640;2022-09-09T08:44:52;8.50;;;3.05;;
67456;SDS011;54319;52.038;4.640;2022-09-09T08:47:31;14.67;;;3.23;;
67456;SDS011;54319;52.038;4.640;2022-09-09T08:50:13;5.60;;;2.85;;
67456;SDS011;54319;52.038;4.640;2022-09-09T08:52:49;7.50;;;2.83;;
67456;SDS011;54319;52.038;4.640;2022-09-09T08:55:22;6.72;;;2.90;;
67456;SDS011;54319;52.038;4.640;2022-09-09T08:57:54;10.38;;;4.32;;
67456;SDS011;54319;52.038;4.640;2022-09-09T09:00:24;10.20;;;3.13;;
67456;SDS011;54319;52.038;4.640;2022-09-09T09:03:02;6.70;;;3.45;;
67456;SDS011;54319;52.038;4.640;2022-09-09T09:05:45;8.68;;;3.00;;
67456;SDS011;54319;52.038;4.640;2022-09-09T09:08:18;8.82;;;3.58;;
67456;SDS011;54319;52.038;4.640;2022-09-09T09:10:54;10.30;;;3.40;;
67456;SDS011;54319;52.038;4.640;2022-09-09T09:13:26;8.98;;;4.20;;
67456;SDS011;54319;52.038;4.640;2022-09-09T09:16:04;10.82;;;3.65;;
67456;SDS011;54319;52.038;4.640;2022-09-09T09:18:36;8.45;;;3.85;;
67456;SDS011;54319;52.038;4.640;2022-09-09T09:21:05;8.98;;;3.45;;
67456;SDS011;54319;52.038;4.640;2022-09-09T09:23:40;10.40;;;3.75;;
67456;SDS011;54319;52.038;4.640;2022-09-09T09:26:11;10.80;;;3.75;;
67456;SDS011;54319;52.038;4.640;2022-09-09T09:28:38;11.57;;;3.42;;
67456;SDS011;54319;52.038;4.640;2022-09-09T09:31:10;9.68;;;3.58;;
67456;SDS011;54319;52.038;4.640;2022-09-09T09:33:42;10.55;;;3.88;;
67456;SDS011;54319;52.038;4.640;2022-09-09T09:36:15;11.93;;;3.77;;
67456;SDS011;54319;52.038;4.640;2022-09-09T09:38:51;9.15;;;3.65;;
67456;SDS011;54319;52.038;4.640;2022-09-09T09:41:28;10.23;;;4.03;;
67456;SDS011;54319;52.038;4.640;2022-09-09T09:43:56;13.40;;;3.53;;
67456;SDS011;54319;52.038;4.640;2022-09-09T09:46:25;8.07;;;3.67;;
67456;SDS011;54319;52.038;4.640;2022-09-09T09:48:59;7.90;;;3.40;;
67456;SDS011;54319;52.038;4.640;2022-09-09T09:51:26;12.10;;;4.35;;
67456;SDS011;54319;52.038;4.640;2022-09-09T09:54:01;6.28;;;3.17;;
67456;SDS011;54319;52.038;4.640;2022-09-09T09:56:35;14.60;;;3.10;;
67456;SDS011;54319;52.038;4.640;2022-09-09T09:59:02;9.05;;;3.55;;
67456;SDS011;54319;52.038;4.640;2022-09-09T10:01:38;8.27;;;3.25;;
67456;SDS011;54319;52.038;4.640;2022-09-09T10:04:14;5.28;;;3.33;;
67456;SDS011;54319;52.038;4.640;2022-09-09T10:06:43;5.88;;;2.75;;
67456;SDS011;54319;52.038;4.640;2022-09-09T10:09:20;7.68;;;2.97;;
67456;SDS011;54319;52.038;4.640;2022-09-09T10:11:51;7.68;;;2.90;;
67456;SDS011;54319;52.038;4.640;2022-09-09T10:14:24;11.35;;;2.70;;
67456;SDS011;54319;52.038;4.640;2022-09-09T10:17:06;8.27;;;3.00;;
67456;SDS011;54319;52.038;4.640;2022-09-09T10:19:45;7.20;;;2.70;;
67456;SDS011;54319;52.038;4.640;2022-09-09T10:22:25;4.93;;;2.60;;
67456;SDS011;54319;52.038;4.640;2022-09-09T10:27:50;5.88;;;2.67;;
67456;SDS011;54319;52.038;4.640;2022-09-09T10:30:30;8.10;;;2.50;;
67456;SDS011;54319;52.038;4.640;2022-09-09T10:33:09;7.70;;;2.72;;
67456;SDS011;54319;52.038;4.640;2022-09-09T10:35:42;5.57;;;2.83;;
67456;SDS011;54319;52.038;4.640;2022-09-09T10:38:15;7.85;;;2.58;;
67456;SDS011;54319;52.038;4.640;2022-09-09T10:40:50;6.90;;;2.35;;
67456;SDS011;54319;52.038;4.640;2022-09-09T10:43:41;5.47;;;2.40;;
67456;SDS011;54319;52.038;4.640;2022-09-09T10:46:24;5.65;;;2.65;;
67456;SDS011;54319;52.038;4.640;2022-09-09T10:49:05;6.75;;;2.58;;
67456;SDS011;54319;52.038;4.640;2022-09-09T10:51:45;8.07;;;2.30;;
67456;SDS011;54319;52.038;4.640;2022-09-09T10:54:28;5.78;;;2.58;;
67456;SDS011;54319;52.038;4.640;2022-09-09T10:57:08;4.93;;;2.40;;
67456;SDS011;54319;52.038;4.640;2022-09-09T10:59:40;7.35;;;2.30;;
67456;SDS011;54319;52.038;4.640;2022-09-09T11:02:13;7.45;;;2.22;;
67456;SDS011;54319;52.038;4.640;2022-09-09T11:04:47;4.40;;;2.50;;
67456;SDS011;54319;52.038;4.640;2022-09-09T11:07:22;4.00;;;2.30;;
67456;SDS011;54319;52.038;4.640;2022-09-09T11:09:58;6.97;;;2.95;;
67456;SDS011;54319;52.038;4.640;2022-09-09T11:12:28;6.20;;;2.90;;
67456;SDS011;54319;52.038;4.640;2022-09-09T11:15:02;5.55;;;2.78;;
67456;SDS011;54319;52.038;4.640;2022-09-09T11:17:33;3.20;;;2.55;;
67456;SDS011;54319;52.038;4.640;2022-09-09T11:20:10;10.57;;;2.95;;
67456;SDS011;54319;52.038;4.640;2022-09-09T11:22:39;7.00;;;2.80;;
67456;SDS011;54319;52.038;4.640;2022-09-09T11:25:14;5.82;;;3.00;;
67456;SDS011;54319;52.038;4.640;2022-09-09T11:27:44;4.63;;;2.88;;
67456;SDS011;54319;52.038;4.640;2022-09-09T11:30:24;3.47;;;2.58;;
67456;SDS011;54319;52.038;4.640;2022-09-09T11:33:02;6.95;;;3.17;;
67456;SDS011;54319;52.038;4.640;2022-09-09T11:35:53;6.22;;;2.90;;
67456;SDS011;54319;52.038;4.640;2022-09-09T11:38:32;7.38;;;2.42;;
67456;SDS011;54319;52.038;4.640;2022-09-09T11:41:07;3.58;;;2.33;;
67456;SDS011;54319;52.038;4.640;2022-09-09T11:43:38;4.63;;;2.80;;
67456;SDS011;54319;52.038;4.640;2022-09-09T11:46:07;6.57;;;3.30;;
67456;SDS011;54319;52.038;4.640;2022-09-09T11:48:37;5.85;;;2.88;;
67456;SDS011;54319;52.038;4.640;2022-09-09T11:51:10;4.10;;;2.78;;
67456;SDS011;54319;52.038;4.640;2022-09-09T11:53:47;5.53;;;2.83;;
67456;SDS011;54319;52.038;4.640;2022-09-09T11:56:24;5.93;;;3.00;;
67456;SDS011;54319;52.038;4.640;2022-09-09T11:58:57;5.78;;;2.92;;
67456;SDS011;54319;52.038;4.640;2022-09-09T12:01:36;5.95;;;3.47;;
67456;SDS011;54319;52.038;4.640;2022-09-09T12:04:17;5.50;;;3.28;;
67456;SDS011;54319;52.038;4.640;2022-09-09T12:06:56;4.13;;;3.00;;
67456;SDS011;54319;52.038;4.640;2022-09-09T12:09:28;9.57;;;3.53;;
67456;SDS011;54319;52.038;4.640;2022-09-09T12:12:23;9.80;;;3.85;;
67456;SDS011;54319;52.038;4.640;2022-09-09T12:14:56;7.03;;;3.30;;
67456;SDS011;54319;52.038;4.640;2022-09-09T12:17:28;13.30;;;4.00;;
67456;SDS011;54319;52.038;4.640;2022-09-09T12:19:59;8.20;;;4.35;;
67456;SDS011;54319;52.038;4.640;2022-09-09T12:22:33;7.20;;;3.70;;
67456;SDS011;54319;52.038;4.640;2022-09-09T12:25:09;7.82;;;4.07;;
67456;SDS011;54319;52.038;4.640;2022-09-09T12:27:50;14.65;;;4.63;;
67456;SDS011;54319;52.038;4.640;2022-09-09T12:30:29;12.95;;;4.15;;
67456;SDS011;54319;52.038;4.640;2022-09-09T12:33:06;8.13;;;4.07;;
67456;SDS011;54319;52.038;4.640;2022-09-09T12:35:43;7.50;;;3.60;;
67456;SDS011;54319;52.038;4.640;2022-09-09T12:38:15;6.15;;;3.80;;
67456;SDS011;54319;52.038;4.640;2022-09-09T12:40:53;7.53;;;4.78;;
67456;SDS011;54319;52.038;4.640;2022-09-09T12:43:23;12.48;;;4.18;;
67456;SDS011;54319;52.038;4.640;2022-09-09T12:45:52;7.28;;;4.05;;
67456;SDS011;54319;52.038;4.640;2022-09-09T12:48:27;7.38;;;3.80;;
67456;SDS011;54319;52.038;4.640;2022-09-09T12:51:00;9.23;;;4.10;;
67456;SDS011;54319;52.038;4.640;2022-09-09T12:53:31;6.30;;;4.35;;
67456;SDS011;54319;52.038;4.640;2022-09-09T12:56:00;8.98;;;4.55;;
67456;SDS011;54319;52.038;4.640;2022-09-09T12:58:29;8.02;;;4.70;;
67456;SDS011;54319;52.038;4.640;2022-09-09T13:01:00;8.70;;;4.18;;
67456;SDS011;54319;52.038;4.640;2022-09-09T13:03:31;8.27;;;3.88;;
67456;SDS011;54319;52.038;4.640;2022-09-09T13:06:10;5.07;;;3.60;;
67456;SDS011;54319;52.038;4.640;2022-09-09T13:08:40;5.82;;;3.70;;
67456;SDS011;54319;52.038;4.640;2022-09-09T13:11:12;5.95;;;3.88;;
67456;SDS011;54319;52.038;4.640;2022-09-09T13:13:49;9.02;;;3.75;;
67456;SDS011;54319;52.038;4.640;2022-09-09T13:16:19;8.20;;;3.17;;
67456;SDS011;54319;52.038;4.640;2022-09-09T13:18:49;5.57;;;3.50;;
67456;SDS011;54319;52.038;4.640;2022-09-09T13:21:17;4.05;;;3.38;;
67456;SDS011;54319;52.038;4.640;2022-09-09T13:23:49;7.82;;;3.17;;
67456;SDS011;54319;52.038;4.640;2022-09-09T13:26:22;4.40;;;2.80;;
67456;SDS011;54319;52.038;4.640;2022-09-09T13:28:50;4.43;;;2.70;;
67456;SDS011;54319;52.038;4.640;2022-09-09T13:31:22;3.40;;;2.50;;
67456;SDS011;54319;52.038;4.640;2022-09-09T13:33:52;3.58;;;2.38;;
67456;SDS011;54319;52.038;4.640;2022-09-09T13:36:27;2.35;;;1.92;;
67456;SDS011;54319;52.038;4.640;2022-09-09T13:38:58;2.85;;;2.03;;
67456;SDS011;54319;52.038;4.640;2022-09-09T13:41:28;4.10;;;1.90;;
67456;SDS011;54319;52.038;4.640;2022-09-09T13:44:00;4.70;;;2.20;;
67456;SDS011;54319;52.038;4.640;2022-09-09T13:46:30;3.83;;;2.30;;
67456;SDS011;54319;52.038;4.640;2022-09-09T13:49:00;3.50;;;1.90;;
67456;SDS011;54319;52.038;4.640;2022-09-09T13:54:06;5.93;;;1.80;;
67456;SDS011;54319;52.038;4.640;2022-09-09T13:56:37;5.03;;;1.77;;
67456;SDS011;54319;52.038;4.640;2022-09-09T13:59:05;4.45;;;1.77;;
67456;SDS011;54319;52.038;4.640;2022-09-09T14:01:37;4.32;;;2.00;;
67456;SDS011;54319;52.038;4.640;2022-09-09T14:04:04;4.78;;;2.00;;
67456;SDS011;54319;52.038;4.640;2022-09-09T14:06:32;6.90;;;1.95;;
67456;SDS011;54319;52.038;4.640;2022-09-09T14:09:03;4.60;;;1.95;;
67456;SDS011;54319;52.038;4.640;2022-09-09T14:11:31;3.90;;;1.83;;
67456;SDS011;54319;52.038;4.640;2022-09-09T14:13:58;3.38;;;1.75;;
67456;SDS011;54319;52.038;4.640;2022-09-09T14:16:26;4.95;;;1.90;;
67456;SDS011;54319;52.038;4.640;2022-09-09T14:18:53;3.22;;;1.52;;
67456;SDS011;54319;52.038;4.640;2022-09-09T14:21:21;5.65;;;1.63;;
67456;SDS011;54319;52.038;4.640;2022-09-09T14:23:48;5.88;;;1.50;;
67456;SDS011;54319;52.038;4.640;2022-09-09T14:28:47;3.72;;;1.85;;
67456;SDS011;54319;52.038;4.640;2022-09-09T14:31:15;2.38;;;1.70;;
67456;SDS011;54319;52.038;4.640;2022-09-09T14:33:42;3.78;;;1.80;;
67456;SDS011;54319;52.038;4.640;2022-09-09T14:36:10;3.15;;;1.60;;
67456;SDS011;54319;52.038;4.640;2022-09-09T14:38:37;4.38;;;1.92;;
67456;SDS011;54319;52.038;4.640;2022-09-09T14:41:06;5.18;;;1.98;;
67456;SDS011;54319;52.038;4.640;2022-09-09T14:43:35;6.35;;;2.03;;
67456;SDS011;54319;52.038;4.640;2022-09-09T14:46:06;4.50;;;2.00;;
67456;SDS011;54319;52.038;4.640;2022-09-09T14:48:33;6.13;;;2.22;;
67456;SDS011;54319;52.038;4.640;2022-09-09T14:51:10;4.60;;;2.85;;
67456;SDS011;54319;52.038;4.640;2022-09-09T14:53:38;5.03;;;2.10;;
67456;SDS011;54319;52.038;4.640;2022-09-09T14:56:07;4.68;;;2.28;;
67456;SDS011;54319;52.038;4.640;2022-09-09T14:58:35;3.95;;;2.53;;
67456;SDS011;54319;52.038;4.640;2022-09-09T15:01:06;5.55;;;2.10;;
67456;SDS011;54319;52.038;4.640;2022-09-09T15:03:36;3.28;;;1.80;;
67456;SDS011;54319;52.038;4.640;2022-09-09T15:06:05;2.85;;;1.60;;
67456;SDS011;54319;52.038;4.640;2022-09-09T15:08:33;3.03;;;1.55;;
67456;SDS011;54319;52.038;4.640;2022-09-09T15:11:01;2.90;;;1.38;;
67456;SDS011;54319;52.038;4.640;2022-09-09T15:13:32;2.08;;;1.30;;
67456;SDS011;54319;52.038;4.640;2022-09-09T15:16:07;3.33;;;1.30;;
67456;SDS011;54319;52.038;4.640;2022-09-09T15:18:35;6.25;;;1.20;;
67456;SDS011;54319;52.038;4.640;2022-09-09T15:21:07;5.03;;;1.30;;
67456;SDS011;54319;52.038;4.640;2022-09-09T15:23:35;2.58;;;1.30;;
67456;SDS011;54319;52.038;4.640;2022-09-09T15:26:05;4.30;;;1.38;;
67456;SDS011;54319;52.038;4.640;2022-09-09T15:28:36;5.85;;;1.60;;
67456;SDS011;54319;52.038;4.640;2022-09-09T15:31:05;2.50;;;1.17;;
67456;SDS011;54319;52.038;4.640;2022-09-09T15:33:35;4.30;;;1.30;;
67456;SDS011;54319;52.038;4.640;2022-09-09T15:36:12;4.32;;;1.73;;
67456;SDS011;54319;52.038;4.640;2022-09-09T15:38:40;3.97;;;1.27;;
67456;SDS011;54319;52.038;4.640;2022-09-09T15:41:07;5.40;;;1.50;;
67456;SDS011;54319;52.038;4.640;2022-09-09T15:43:34;3.65;;;1.23;;
67456;SDS011;54319;52.038;4.640;2022-09-09T15:46:09;2.90;;;1.33;;
67456;SDS011;54319;52.038;4.640;2022-09-09T15:48:51;5.80;;;1.48;;
67456;SDS011;54319;52.038;4.640;2022-09-09T15:51:19;2.95;;;1.20;;
67456;SDS011;54319;52.038;4.640;2022-09-09T15:53:53;5.45;;;1.52;;
67456;SDS011;54319;52.038;4.640;2022-09-09T15:56:22;5.50;;;1.70;;
67456;SDS011;54319;52.038;4.640;2022-09-09T15:58:50;6.70;;;2.00;;
67456;SDS011;54319;52.038;4.640;2022-09-09T16:01:19;7.57;;;2.10;;